CheckWX is a tool to help pilots better visualize weather data.  It is not intended as a substitute for an official pre-flight weather briefing.

23:35:53 UTC

KIDP METAR
Independence Municipal Airport
Independence, Kansas, USA
Current

21 mins ago

KIDP 182315Z AUTO 15009KT 10SM CLR 19/09 A2971 RMK AO2 T01900092
Observed
Oct-18 @ 23:15 UTC
Wind
  • 150° at 9 KTS
Visibility
10 SM
Flight Rules
VFR
Cloud Levels
  • Clear skies
Temperature
19°C / 66°F
Dewpoint
C / 48°F
Humidity
52%
Altimeter
29.71" Hg
Pressure
1006.12 hPa
Previous

41 mins ago

KIDP 182255Z AUTO 16013KT 10SM CLR 20/09 A2971 RMK AO2 T01980091
Observed
Oct-18 @ 22:55 UTC
Wind
  • 160° at 13 KTS
Visibility
10 SM
Flight Rules
VFR
Cloud Levels
  • Clear skies
Temperature
20°C / 68°F
Dewpoint
C / 48°F
Humidity
49%
Altimeter
29.71" Hg
Pressure
1006.12 hPa
Previous

1 hour ago

KIDP 182235Z AUTO 16014G18KT 10SM CLR 20/09 A2971 RMK AO2 T02040090
Observed
Oct-18 @ 22:35 UTC
Wind
  • 160° at 14 KTS
  • Gusting to 18 KTS
Visibility
10 SM
Flight Rules
VFR
Cloud Levels
  • Clear skies
Temperature
20°C / 68°F
Dewpoint
C / 48°F
Humidity
49%
Altimeter
29.71" Hg
Pressure
1006.12 hPa